Terminal Aerodrome Forecast
Issued by NWS Wilmington, OH

Current Version | Previous Version | Text Only | Print | Product List | Glossary Off
Versions: 1 2 3 4 5 6 7 8 9 10 11 12 13 14 15 16 17 18 19 20 21 22 23 24 25 26 27 28 29 30

000
FTUS41 KILN 262006 AAA
TAFILN
TAF AMD
KILN 262006Z 2620/2718 25005KT P6SM VCTS SCT025 BKN040CB
      TEMPO 2620/2622 3SM TSRA BR OVC020CB
     FM262200 32005KT P6SM VCTS SCT025 BKN040CB
     FM270000 35005KT P6SM BKN040
     FM270500 04004KT P6SM SKC
     FM271500 08004KT P6SM FEW050=

USA.gov is the U.S. government's official web portal to all federal, state and local government web resources and services.